createdAt,value
2018-12-12T00:00:15.023Z,3.40
2018-12-12T00:02:42.955Z,3.30
2018-12-12T00:05:10.914Z,3.30
2018-12-12T00:07:38.912Z,3.30
2018-12-12T00:10:09.645Z,3.30
2018-12-12T00:12:37.651Z,3.20
2018-12-12T00:15:05.594Z,3.30
2018-12-12T00:17:33.888Z,3.30
2018-12-12T00:20:01.831Z,3.30
2018-12-12T00:22:29.751Z,3.30
2018-12-12T00:24:57.660Z,3.30
2018-12-12T00:27:25.576Z,3.30
2018-12-12T00:29:53.512Z,3.30
2018-12-12T00:32:21.432Z,3.30
2018-12-12T00:34:49.404Z,3.30
2018-12-12T00:37:17.328Z,3.30
2018-12-12T00:39:45.246Z,3.40
2018-12-12T00:42:13.175Z,3.50
2018-12-12T00:44:41.120Z,3.50
2018-12-12T00:47:09.075Z,3.50
2018-12-12T00:49:36.980Z,3.50
2018-12-12T00:52:04.897Z,3.50
2018-12-12T00:54:33.083Z,3.50
2018-12-12T00:57:01.108Z,3.50
2018-12-12T00:59:29.052Z,3.50
2018-12-12T01:01:56.996Z,3.40
2018-12-12T01:04:24.904Z,3.40
2018-12-12T01:06:52.884Z,3.40
2018-12-12T01:09:21.050Z,3.40
2018-12-12T01:12:25.160Z,3.40
2018-12-12T01:14:53.132Z,3.40
2018-12-12T01:17:21.397Z,3.40
2018-12-12T01:19:49.359Z,3.40
2018-12-12T01:22:17.371Z,3.40
2018-12-12T01:24:45.299Z,3.40
2018-12-12T01:27:13.248Z,3.40
2018-12-12T01:29:41.176Z,3.40
2018-12-12T01:32:09.136Z,3.50
2018-12-12T01:34:37.107Z,3.60
2018-12-12T01:37:05.264Z,3.60
2018-12-12T01:39:33.255Z,3.60
2018-12-12T01:42:01.157Z,3.60
2018-12-12T01:44:29.076Z,3.50
2018-12-12T01:46:57.008Z,3.50
2018-12-12T01:49:25.056Z,3.40
2018-12-12T01:51:53.065Z,3.40
2018-12-12T01:54:20.976Z,3.40
2018-12-12T01:56:48.892Z,3.40
2018-12-12T01:59:19.704Z,3.40
2018-12-12T02:01:47.685Z,3.30
2018-12-12T02:04:15.604Z,3.20
2018-12-12T02:06:43.541Z,3.20
2018-12-12T02:09:11.468Z,3.10
2018-12-12T02:11:39.412Z,3.10
2018-12-12T02:14:07.349Z,3.10
2018-12-12T02:16:35.284Z,3.10
2018-12-12T02:19:03.359Z,3.10
2018-12-12T02:21:31.328Z,3.10
2018-12-12T02:23:59.308Z,3.10
2018-12-12T02:26:27.369Z,3.10
2018-12-12T02:28:55.471Z,3.20
2018-12-12T02:31:23.406Z,3.30
2018-12-12T02:33:51.335Z,3.40
2018-12-12T02:36:19.245Z,3.40
2018-12-12T02:38:47.232Z,3.40
2018-12-12T02:41:15.144Z,3.40
2018-12-12T02:43:43.076Z,3.30
2018-12-12T02:46:10.999Z,3.30
2018-12-12T02:48:38.942Z,3.20
2018-12-12T02:51:06.942Z,3.20
2018-12-12T02:53:34.984Z,3.20
2018-12-12T02:56:02.952Z,3.20
2018-12-12T02:58:30.853Z,3.20
2018-12-12T03:00:59.573Z,3.20
2018-12-12T03:03:27.571Z,3.20
2018-12-12T03:05:55.477Z,3.10
2018-12-12T03:11:06.080Z,3.10
2018-12-12T03:13:34.068Z,3.00
2018-12-12T03:16:02.004Z,3.00
2018-12-12T03:18:30.344Z,2.90
2018-12-12T03:20:58.401Z,2.90
2018-12-12T03:23:26.333Z,2.90
2018-12-12T03:25:54.249Z,2.80
2018-12-12T03:28:22.200Z,2.80
2018-12-12T03:30:50.209Z,2.90
2018-12-12T03:33:18.191Z,2.90
2018-12-12T03:35:46.101Z,2.90
2018-12-12T03:38:14.015Z,3.00
2018-12-12T03:40:42.280Z,3.00
2018-12-12T03:43:10.459Z,3.10
2018-12-12T03:45:38.369Z,3.10
2018-12-12T03:48:06.281Z,3.10
2018-12-12T03:50:34.208Z,3.20
2018-12-12T03:53:02.380Z,3.20
2018-12-12T03:55:30.888Z,3.10
2018-12-12T03:57:58.896Z,3.20
2018-12-12T04:00:26.828Z,3.20
2018-12-12T04:02:54.854Z,3.20
2018-12-12T04:05:22.802Z,3.10
2018-12-12T04:07:50.734Z,3.10
2018-12-12T04:10:18.640Z,3.10
2018-12-12T04:12:46.559Z,3.00
2018-12-12T04:15:14.498Z,3.00
2018-12-12T04:17:42.408Z,2.90
2018-12-12T04:20:10.340Z,2.90
2018-12-12T04:22:38.270Z,2.90
2018-12-12T04:25:07.341Z,2.80
2018-12-12T04:27:35.261Z,2.70
2018-12-12T04:30:03.616Z,2.70
2018-12-12T04:32:31.552Z,2.70
2018-12-12T04:34:59.643Z,2.70
2018-12-12T04:37:27.550Z,2.60
2018-12-12T04:39:55.508Z,2.60
2018-12-12T04:42:23.440Z,2.60
2018-12-12T04:44:51.380Z,2.60
2018-12-12T04:47:19.322Z,2.50
2018-12-12T04:49:47.282Z,2.50
2018-12-12T04:52:15.199Z,2.40
2018-12-12T04:54:43.212Z,2.40
2018-12-12T04:57:11.129Z,2.30
2018-12-12T04:59:39.312Z,2.30
2018-12-12T05:02:07.600Z,2.30
2018-12-12T05:04:36.132Z,2.40
2018-12-12T05:07:04.320Z,2.40
2018-12-12T05:09:32.244Z,2.30
2018-12-12T05:12:00.186Z,2.30
2018-12-12T05:14:28.112Z,2.20
2018-12-12T05:16:56.024Z,2.20
2018-12-12T05:19:23.947Z,2.20
2018-12-12T05:21:51.863Z,2.10
2018-12-12T05:24:19.761Z,2.10
2018-12-12T05:26:47.698Z,2.10
2018-12-12T05:29:15.627Z,2.10
2018-12-12T05:31:43.913Z,2.10
2018-12-12T05:34:11.990Z,2.20
2018-12-12T05:36:39.932Z,2.20
2018-12-12T05:39:08.181Z,2.10
2018-12-12T05:41:36.625Z,2.10
2018-12-12T05:44:04.573Z,2.10
2018-12-12T05:46:32.496Z,2.10
2018-12-12T05:49:00.431Z,2.10
2018-12-12T05:51:28.465Z,2.00
2018-12-12T05:53:56.435Z,2.00
2018-12-12T05:56:24.365Z,2.00
2018-12-12T05:58:52.296Z,1.90
2018-12-12T06:01:20.224Z,2.00
2018-12-12T06:03:48.268Z,2.00
2018-12-12T06:06:16.193Z,2.00
2018-12-12T06:08:44.125Z,2.10
2018-12-12T06:11:12.039Z,2.20
2018-12-12T06:16:15.911Z,2.30
2018-12-12T06:18:43.852Z,2.40
2018-12-12T06:21:11.789Z,2.50
2018-12-12T06:23:39.712Z,2.50
2018-12-12T06:26:07.629Z,2.50
2018-12-12T06:28:35.580Z,2.40
2018-12-12T06:31:03.585Z,2.20
2018-12-12T06:33:31.538Z,2.20
2018-12-12T06:35:59.481Z,2.10
2018-12-12T06:38:27.420Z,2.00
2018-12-12T06:40:55.332Z,2.00
2018-12-12T06:43:23.260Z,2.00
2018-12-12T06:45:51.209Z,2.00
2018-12-12T06:48:19.164Z,2.00
2018-12-12T06:50:47.094Z,2.00
2018-12-12T06:53:15.019Z,2.00
2018-12-12T06:55:43.509Z,2.00
2018-12-12T06:58:11.815Z,2.00
2018-12-12T07:00:39.807Z,2.00
2018-12-12T07:03:08.020Z,1.90
2018-12-12T07:05:35.996Z,2.00
2018-12-12T07:08:03.959Z,1.90
2018-12-12T07:10:32.124Z,1.90
2018-12-12T07:13:00.053Z,1.90
2018-12-12T07:15:27.992Z,2.00
2018-12-12T07:17:55.912Z,1.90
2018-12-12T07:20:23.860Z,1.90
2018-12-12T07:22:51.852Z,1.90
2018-12-12T07:25:19.761Z,1.90
2018-12-12T07:27:47.679Z,1.90
2018-12-12T07:30:15.613Z,1.90
2018-12-12T07:32:43.803Z,2.00
2018-12-12T07:35:11.744Z,2.10
2018-12-12T07:37:39.865Z,2.10
2018-12-12T07:40:07.819Z,2.10
2018-12-12T07:42:35.831Z,2.20
2018-12-12T07:45:03.888Z,2.30
2018-12-12T07:47:31.856Z,2.30
2018-12-12T07:49:59.799Z,2.40
2018-12-12T07:52:28.145Z,2.40
2018-12-12T07:54:56.200Z,2.40
2018-12-12T07:57:24.146Z,2.40
2018-12-12T07:59:52.100Z,2.40
2018-12-12T08:02:21.539Z,2.40
2018-12-12T08:04:49.473Z,2.50
2018-12-12T08:07:17.415Z,2.50
2018-12-12T08:09:45.345Z,2.60
2018-12-12T08:12:13.288Z,2.60
2018-12-12T08:14:41.265Z,2.70
2018-12-12T08:17:09.284Z,2.80
2018-12-12T08:19:37.240Z,2.90
2018-12-12T08:22:06.324Z,3.00
2018-12-12T08:24:34.428Z,3.00
2018-12-12T08:27:02.381Z,3.00
2018-12-12T08:29:30.340Z,3.00
2018-12-12T08:31:59.481Z,3.10
2018-12-12T08:34:27.421Z,3.20
2018-12-12T08:36:55.363Z,3.30
2018-12-12T08:39:26.481Z,3.30
2018-12-12T08:41:54.449Z,3.40
2018-12-12T08:44:22.396Z,3.40
2018-12-12T08:46:50.335Z,3.40
2018-12-12T08:49:18.988Z,3.50
2018-12-12T08:51:47.061Z,3.60
2018-12-12T08:54:14.991Z,3.60
2018-12-12T08:56:42.915Z,3.70
2018-12-12T08:59:10.888Z,3.70
2018-12-12T09:01:38.860Z,3.70
2018-12-12T09:04:06.790Z,3.70
2018-12-12T09:06:34.696Z,3.80
2018-12-12T09:09:02.818Z,3.80
2018-12-12T09:11:30.764Z,4.00
2018-12-12T09:13:58.789Z,4.20
2018-12-12T09:16:26.716Z,4.30
2018-12-12T09:18:54.673Z,4.40
2018-12-12T09:21:22.704Z,4.70
2018-12-12T09:23:51.484Z,5.00
2018-12-12T09:26:19.565Z,5.40
2018-12-12T09:28:47.489Z,5.70
2018-12-12T09:31:15.976Z,5.80
2018-12-12T09:33:43.900Z,5.90
2018-12-12T09:36:13.028Z,5.90
2018-12-12T09:38:41.022Z,6.00
2018-12-12T09:41:08.949Z,6.20
2018-12-12T09:43:36.864Z,6.20
2018-12-12T09:46:04.805Z,6.30
2018-12-12T09:48:32.755Z,6.30
2018-12-12T09:51:07.098Z,6.10
2018-12-12T09:53:30.641Z,6.00
2018-12-12T09:55:58.589Z,5.80
2018-12-12T09:58:26.515Z,5.80
2018-12-12T10:00:54.448Z,5.80
2018-12-12T10:03:22.448Z,5.70
2018-12-12T10:05:50.383Z,5.70
2018-12-12T10:08:18.312Z,5.60
2018-12-12T10:10:46.231Z,5.60
2018-12-12T10:13:14.155Z,5.80
2018-12-12T10:15:42.140Z,5.80
2018-12-12T10:18:10.121Z,5.80
2018-12-12T10:20:38.128Z,5.70
2018-12-12T10:23:06.112Z,5.80
2018-12-12T10:25:34.045Z,5.80
2018-12-12T10:28:01.980Z,5.80
2018-12-12T10:30:29.944Z,5.70
2018-12-12T10:32:57.877Z,5.80
2018-12-12T10:35:25.789Z,5.80
2018-12-12T10:37:53.720Z,5.90
2018-12-12T10:40:21.716Z,6.00
2018-12-12T10:42:49.652Z,6.00
2018-12-12T10:45:17.590Z,6.10
2018-12-12T10:47:45.531Z,6.20
2018-12-12T10:50:13.500Z,6.30
2018-12-12T10:52:41.420Z,6.30
2018-12-12T10:55:09.400Z,6.40
2018-12-12T10:57:37.331Z,6.50
2018-12-12T11:00:12.435Z,6.80
2018-12-12T11:02:40.672Z,7.00
2018-12-12T11:05:08.868Z,7.20
2018-12-12T11:07:36.829Z,7.40
2018-12-12T11:10:05.172Z,7.70
2018-12-12T11:12:33.141Z,7.90
2018-12-12T11:15:01.223Z,8.10
2018-12-12T11:17:29.168Z,8.20
2018-12-12T11:19:57.133Z,8.10
2018-12-12T11:22:25.115Z,8.10
2018-12-12T11:24:53.036Z,8.10
2018-12-12T11:27:21.044Z,8.10
2018-12-12T11:29:49.112Z,8.10
2018-12-12T11:32:17.035Z,8.10
2018-12-12T11:34:44.982Z,8.10
2018-12-12T11:37:12.925Z,8.00
2018-12-12T11:39:40.875Z,8.10
2018-12-12T11:42:08.812Z,8.10
2018-12-12T11:44:36.750Z,8.00
2018-12-12T11:47:04.676Z,8.00
2018-12-12T11:49:32.597Z,8.00
2018-12-12T11:52:00.700Z,8.00
2018-12-12T11:54:28.760Z,8.00
2018-12-12T11:56:56.871Z,8.10
2018-12-12T11:59:24.888Z,8.10
2018-12-12T12:01:52.823Z,8.10
2018-12-12T12:04:20.782Z,8.20
2018-12-12T12:06:48.710Z,8.30
2018-12-12T12:09:16.675Z,8.50
2018-12-12T12:11:44.629Z,8.70
2018-12-12T12:14:12.573Z,8.80
2018-12-12T12:16:40.588Z,8.80
2018-12-12T12:19:08.503Z,8.90
2018-12-12T12:21:36.443Z,9.00
2018-12-12T12:24:04.376Z,9.00
2018-12-12T12:26:32.576Z,8.90
2018-12-12T12:29:00.697Z,8.80
2018-12-12T12:31:28.642Z,8.70
2018-12-12T12:34:03.109Z,8.70
2018-12-12T12:36:26.704Z,8.60
2018-12-12T12:38:54.644Z,8.60
2018-12-12T12:41:22.609Z,8.70
2018-12-12T12:43:50.528Z,8.80
2018-12-12T12:46:18.492Z,8.80
2018-12-12T12:48:46.467Z,8.80
2018-12-12T12:51:14.419Z,8.80
2018-12-12T12:53:42.383Z,8.70
2018-12-12T12:56:10.315Z,8.70
2018-12-12T12:58:38.244Z,8.60
2018-12-12T13:01:06.169Z,8.60
2018-12-12T13:03:34.154Z,8.50
2018-12-12T13:06:02.082Z,8.50
2018-12-12T13:08:30.084Z,8.50
2018-12-12T13:10:58.039Z,8.60
2018-12-12T13:13:26.118Z,8.60
2018-12-12T13:15:54.453Z,8.60
2018-12-12T13:18:22.408Z,8.60
2018-12-12T13:20:50.363Z,8.50
2018-12-12T13:23:18.301Z,8.50
2018-12-12T13:25:46.230Z,8.50
2018-12-12T13:28:14.263Z,8.50
2018-12-12T13:30:42.213Z,8.50
2018-12-12T13:33:10.143Z,8.50
2018-12-12T13:35:38.060Z,8.50
2018-12-12T13:38:05.986Z,8.50
2018-12-12T13:40:33.911Z,8.50
2018-12-12T13:43:01.844Z,8.50
2018-12-12T13:45:29.800Z,8.60
2018-12-12T13:47:57.805Z,8.60
2018-12-12T13:50:25.751Z,8.60
2018-12-12T13:52:53.698Z,8.60
2018-12-12T13:55:21.599Z,8.60
2018-12-12T13:57:49.518Z,8.60
2018-12-12T14:00:17.463Z,8.60
2018-12-12T14:02:45.378Z,8.60
2018-12-12T14:05:13.313Z,8.60
2018-12-12T14:07:41.285Z,8.70
2018-12-12T14:10:09.285Z,8.60
2018-12-12T14:12:37.221Z,8.60
2018-12-12T14:15:05.468Z,8.60
2018-12-12T14:17:33.387Z,8.60
2018-12-12T14:20:01.388Z,8.60
2018-12-12T14:22:29.315Z,8.50
2018-12-12T14:24:57.242Z,8.40
2018-12-12T14:27:25.178Z,8.30
2018-12-12T14:29:53.119Z,8.30
2018-12-12T14:32:21.055Z,8.20
2018-12-12T14:34:49.041Z,8.20
2018-12-12T14:37:17.032Z,8.20
2018-12-12T14:39:44.990Z,8.30
2018-12-12T14:42:12.920Z,8.20
2018-12-12T14:44:40.839Z,8.20
2018-12-12T14:47:08.887Z,8.10
2018-12-12T14:49:36.822Z,8.10
2018-12-12T14:52:04.764Z,8.10
2018-12-12T14:54:32.703Z,8.00
2018-12-12T14:57:00.660Z,7.80
2018-12-12T14:59:28.572Z,7.70
2018-12-12T15:01:56.544Z,7.80
2018-12-12T15:04:24.500Z,7.90
2018-12-12T15:06:52.427Z,7.80
2018-12-12T15:09:20.888Z,7.80
2018-12-12T15:11:48.943Z,7.70
2018-12-12T15:14:16.865Z,7.60
2018-12-12T15:16:44.878Z,7.60
2018-12-12T15:19:12.847Z,7.60
2018-12-12T15:21:40.825Z,7.60
2018-12-12T15:24:08.767Z,7.50
2018-12-12T15:26:36.714Z,7.50
2018-12-12T15:29:04.656Z,7.50
2018-12-12T15:31:32.694Z,7.40
2018-12-12T15:34:00.652Z,7.40
2018-12-12T15:36:28.581Z,7.40
2018-12-12T15:38:56.534Z,7.50
2018-12-12T15:41:24.491Z,7.60
2018-12-12T15:43:52.445Z,7.70
2018-12-12T15:46:20.402Z,7.80
2018-12-12T15:48:48.364Z,7.80
2018-12-12T15:51:16.280Z,7.70
2018-12-12T15:53:44.244Z,7.40
2018-12-12T15:56:12.325Z,7.20
2018-12-12T15:58:40.580Z,7.20
2018-12-12T16:01:08.941Z,7.20
2018-12-12T16:03:37.187Z,7.10
2018-12-12T16:06:05.772Z,7.10
2018-12-12T16:08:34.903Z,7.10
2018-12-12T16:11:08.212Z,7.10
2018-12-12T16:13:33.619Z,7.10
2018-12-12T16:16:01.929Z,7.20
2018-12-12T16:18:30.428Z,7.20
2018-12-12T16:21:00.211Z,7.10
2018-12-12T16:23:28.487Z,7.00
2018-12-12T16:25:56.652Z,7.00
2018-12-12T16:28:25.023Z,6.90
2018-12-12T16:30:53.250Z,6.90
2018-12-12T16:33:22.464Z,6.90
2018-12-12T16:35:50.661Z,6.90
2018-12-12T16:38:18.825Z,6.90
2018-12-12T16:40:46.952Z,6.90
2018-12-12T16:43:14.928Z,7.00
2018-12-12T16:45:42.886Z,6.90
2018-12-12T16:48:10.900Z,7.00
2018-12-12T16:50:38.889Z,6.90
2018-12-12T16:53:06.885Z,6.90
2018-12-12T16:55:34.976Z,6.90
2018-12-12T16:58:02.984Z,6.90
2018-12-12T17:00:30.924Z,6.90
2018-12-12T17:02:58.943Z,6.90
2018-12-12T17:05:26.994Z,6.90
2018-12-12T17:07:55.008Z,6.90
2018-12-12T17:10:22.997Z,6.90
2018-12-12T17:12:51.481Z,6.80
2018-12-12T17:15:20.052Z,6.80
2018-12-12T17:17:48.056Z,6.80
2018-12-12T17:20:16.352Z,6.80
2018-12-12T17:22:44.324Z,6.80
2018-12-12T17:25:12.440Z,6.80
2018-12-12T17:27:40.432Z,6.80
2018-12-12T17:30:08.776Z,6.70
2018-12-12T17:32:36.795Z,6.60
2018-12-12T17:35:08.775Z,6.70
2018-12-12T17:37:35.276Z,6.70
2018-12-12T17:40:03.356Z,6.70
2018-12-12T17:42:31.381Z,6.70
2018-12-12T17:44:59.328Z,6.90
2018-12-12T17:47:27.334Z,6.90
2018-12-12T17:49:55.494Z,7.00
2018-12-12T17:52:23.456Z,7.00
2018-12-12T17:54:51.725Z,7.10
2018-12-12T17:57:19.710Z,7.10
2018-12-12T17:59:47.701Z,7.20
2018-12-12T18:02:15.725Z,7.20
2018-12-12T18:04:43.783Z,7.20
2018-12-12T18:07:11.811Z,7.20
2018-12-12T18:09:39.845Z,7.30
2018-12-12T18:12:07.812Z,7.30
2018-12-12T18:14:35.904Z,7.30
2018-12-12T18:17:03.908Z,7.20
2018-12-12T18:19:31.895Z,7.00
2018-12-12T18:21:59.938Z,6.90
2018-12-12T18:24:27.948Z,6.80
2018-12-12T18:26:56.099Z,6.80
2018-12-12T18:29:24.417Z,6.80
2018-12-12T18:31:53.623Z,6.80
2018-12-12T18:34:21.626Z,6.80
2018-12-12T18:36:49.718Z,6.80
2018-12-12T18:39:17.868Z,6.70
2018-12-12T18:41:46.011Z,6.60
2018-12-12T18:44:14.079Z,6.60
2018-12-12T18:46:42.123Z,6.60
2018-12-12T18:49:10.076Z,6.60
2018-12-12T18:51:38.116Z,6.60
2018-12-12T18:54:06.145Z,6.60
2018-12-12T18:56:34.124Z,6.60
2018-12-12T18:59:02.291Z,6.60
2018-12-12T19:01:30.374Z,6.60
2018-12-12T19:03:58.416Z,6.50
2018-12-12T19:06:27.058Z,6.50
2018-12-12T19:08:56.085Z,6.50
2018-12-12T19:11:24.115Z,6.50
2018-12-12T19:13:52.315Z,6.50
2018-12-12T19:16:20.590Z,6.60
2018-12-12T19:18:48.579Z,6.60
2018-12-12T19:21:16.599Z,6.60
2018-12-12T19:23:44.828Z,6.60
2018-12-12T19:26:12.779Z,6.60
2018-12-12T19:28:40.913Z,6.60
2018-12-12T19:31:08.944Z,6.70
2018-12-12T19:33:36.928Z,6.60
2018-12-12T19:36:04.920Z,6.70
2018-12-12T19:38:33.147Z,6.70
2018-12-12T19:41:01.165Z,6.60
2018-12-12T19:43:29.253Z,6.70
2018-12-12T19:45:57.437Z,6.60
2018-12-12T19:48:25.583Z,6.70
2018-12-12T19:50:53.604Z,6.80
2018-12-12T19:53:21.607Z,6.80
2018-12-12T19:55:49.605Z,6.80
2018-12-12T19:58:17.584Z,6.90
2018-12-12T20:00:45.600Z,6.90
2018-12-12T20:03:13.611Z,7.00
2018-12-12T20:05:41.609Z,7.00
2018-12-12T20:08:09.649Z,6.90
2018-12-12T20:10:37.646Z,6.90
2018-12-12T20:13:05.665Z,6.80
2018-12-12T20:15:39.289Z,6.80
2018-12-12T20:18:07.248Z,6.70
2018-12-12T20:20:35.259Z,6.70
2018-12-12T20:23:03.259Z,6.70
2018-12-12T20:25:31.528Z,6.70
2018-12-12T20:27:59.659Z,6.70
2018-12-12T20:30:27.647Z,6.70
2018-12-12T20:32:55.780Z,6.70
2018-12-12T20:35:23.831Z,6.70
2018-12-12T20:37:51.823Z,6.80
2018-12-12T20:40:19.836Z,6.80
2018-12-12T20:42:47.775Z,6.80
2018-12-12T20:45:15.784Z,6.80
2018-12-12T20:47:43.776Z,6.70
2018-12-12T20:50:11.764Z,6.70
2018-12-12T20:52:39.816Z,6.70
2018-12-12T20:55:07.811Z,6.70
2018-12-12T20:57:35.855Z,6.70
2018-12-12T21:00:04.005Z,6.60
2018-12-12T21:02:32.072Z,6.60
2018-12-12T21:05:00.082Z,6.70
2018-12-12T21:07:28.066Z,6.70
2018-12-12T21:09:56.068Z,6.80
2018-12-12T21:12:24.111Z,6.80
2018-12-12T21:14:52.532Z,6.80
2018-12-12T21:17:20.550Z,6.80
2018-12-12T21:19:48.494Z,6.80
2018-12-12T21:22:16.467Z,6.80
2018-12-12T21:24:44.453Z,6.80
2018-12-12T21:27:12.432Z,6.80
2018-12-12T21:29:40.984Z,6.80
2018-12-12T21:32:09.003Z,6.70
2018-12-12T21:34:36.972Z,6.70
2018-12-12T21:37:05.165Z,6.70
2018-12-12T21:39:33.308Z,6.70
2018-12-12T21:42:01.314Z,6.80
2018-12-12T21:44:29.408Z,6.80
2018-12-12T21:46:57.434Z,6.80
2018-12-12T21:49:25.641Z,6.70
2018-12-12T21:51:53.771Z,6.70
2018-12-12T21:54:21.699Z,6.70
2018-12-12T21:56:49.604Z,6.80
2018-12-12T21:59:17.560Z,6.80
2018-12-12T22:01:45.523Z,6.80
2018-12-12T22:04:13.545Z,6.80
2018-12-12T22:06:41.568Z,6.70
2018-12-12T22:09:09.485Z,6.70
2018-12-12T22:11:37.555Z,6.70
2018-12-12T22:14:06.428Z,6.70
2018-12-12T22:16:34.380Z,6.70
2018-12-12T22:19:02.320Z,6.70
2018-12-12T22:21:30.252Z,6.70
2018-12-12T22:23:58.262Z,6.60
2018-12-12T22:26:26.203Z,6.70
2018-12-12T22:28:54.362Z,6.70
2018-12-12T22:31:22.623Z,6.70
2018-12-12T22:33:50.584Z,6.70
2018-12-12T22:36:18.501Z,6.70
2018-12-12T22:38:46.417Z,6.70
2018-12-12T22:41:14.340Z,6.70
2018-12-12T22:43:42.260Z,6.70
2018-12-12T22:46:10.286Z,6.80
2018-12-12T22:48:38.264Z,6.80
2018-12-12T22:51:06.192Z,6.90
2018-12-12T22:53:34.116Z,6.80
2018-12-12T22:56:02.064Z,6.80
2018-12-12T22:58:29.991Z,6.70
2018-12-12T23:01:07.322Z,6.60
2018-12-12T23:03:35.668Z,6.50
2018-12-12T23:06:03.584Z,6.40
2018-12-12T23:08:31.528Z,6.40
2018-12-12T23:10:59.456Z,6.30
2018-12-12T23:13:27.387Z,6.20
2018-12-12T23:15:55.335Z,6.10
2018-12-12T23:18:23.317Z,6.00
2018-12-12T23:20:51.233Z,5.90
2018-12-12T23:23:19.180Z,5.80
2018-12-12T23:25:47.148Z,5.70
2018-12-12T23:28:15.092Z,5.70
2018-12-12T23:30:43.055Z,5.60
2018-12-12T23:33:11.025Z,5.50
2018-12-12T23:35:38.925Z,5.50
2018-12-12T23:38:13.513Z,5.40
2018-12-12T23:40:41.460Z,5.30
2018-12-12T23:43:09.370Z,5.20
2018-12-12T23:45:37.300Z,5.10
2018-12-12T23:48:05.236Z,5.10
2018-12-12T23:50:33.184Z,5.10
2018-12-12T23:53:01.124Z,5.00
2018-12-12T23:55:29.020Z,5.00
2018-12-12T23:57:56.935Z,4.90
